Número do voo
TLA1751
Partida Destino
Val de Cans/Júlio Cezar Ribeiro International Airport (SBBE) Ver Cartas Aéreas

Eduardo Gomes International Airport (SBEG) Ver Cartas Aéreas

Hora de Partida Hora de Chegada
Aeronave Distância
B738 702.227nm
METAR do Aeroporto de Partida METAR do Aeroporto de Destino
SBBE 260600Z 11003KT 9999 FEW020 BKN050 25/25 Q1010 SBEG 260600Z 02001KT 9999 FEW020 25/24 Q1011
Rota

SkyVector

 

Notas

Dados adicionais









Copyright © 2020 Todos os direitos reservados. Tropical Linhas Aereas Virtuais

Cms by phpVMS